Portada
METAR-TAF:

METAR-TAF

Aeropuertos :

Kermán, Irán

latitud: 30-15N, longitud: 056-58E, altitud: 1748 m

Observación

El informe se hizo hace 59 minutos, a las 20:00 UTC
Viento 4 kt del este-sureste
Temperatura 0°C
Humedad 31%
Presión 1024 hPa
Visibilidad 10 km o más
sin nubes por debajo de 1500 m y sin presencia de cumulonimbus.

METAR: OIKK 112000Z 12004KT CAVOK 00/M15 Q1024 A3025

Hora: 00:29 (20:59 UTC)

Pronóstico

El informe se hizo hace 2 horas y 59 minutos, a las 18:00 UTC
Pronóstico válido del 11 a las 18 UTC al 12 a las 24 UTC
Viento 6 kt del este
Visibilidad 10 km o más
sin nubes por debajo de 1500 m y sin presencia de cumulonimbus.

TAF: OIKK 111800Z 1118/1224 10003MPS CAVOK

Observaciones y pronósticos meteorológicos de más de 4000 aeropuertos (mensajes METAR y TAF).

Los puntos amarillos y rojos representan las estaciones disponibles.

Ponga el ratón en el punto deseado para ver el nombre de la estación.

Haga clic para ver las observaciones y los pronósticos meteorológicos.

Para cambiar el mapa : haga clic en los botones verdes con una cruz de color negro para hacer un zoom, en el botón verde con un guión para alejar o en las flechas verdes para mapas adyacentes.


METAR-TAF: